Wanatah, Indiana
Current Conditions -  °F | °C
As of 1:56 AM on Saturday 20 Dec 2014 (Local Time) from KVPZ Reporting Station
Overcast Overcast  
Wind Chill: 24°   Ceiling: 2300
Heat Index: 30°   Visibility: 10mi
Dew Point: 23°   Wind: 6mph
Humidity: 75%   Direction: 250°WSW
Pressure: 30.28"   Gusts: NA
Location:  41.43°N, 86.9°W
Report Text: KVPZ 200756Z AUTO 25005KT 10SM OVC023 M01/M05 A3028 RMK AO2 SLP263 T10111050 TSNO
Loading
Personal Weather Stations






























Interactive Weather Map New forecast layout! Learn more

10-Day Weather Forecast

Advertisements
Track Severe Weather on mobile